Time;durP1;ratioP1;P1;durP2;ratioP2;P2;SDS_P1;SDS_P2;PMS_P1;PMS_P2;Temp;Humidity;BMP_temperature;BMP_pressure;BME280_temperature;BME280_humidity;BME280_pressure;Samples;Min_cycle;Max_cycle;Signal;HPM_P1;HPM_P2
2022/10/09 00:02:14;;;;;;;0.30;0.30;;;;;;;;;;5021792;28;20218;-69
2022/10/09 00:04:40;;;;;;;0.23;0.23;;;;;;;;;;5019027;28;20241;-69
2022/10/09 00:07:05;;;;;;;0.30;0.30;;;;;;;;;;5017532;28;20440;-69
2022/10/09 00:09:30;;;;;;;0.20;0.20;;;;;;;;;;5018248;28;20184;-69
2022/10/09 00:11:56;;;;;;;0.30;0.30;;;;;;;;;;5017915;28;20211;-69
2022/10/09 00:14:21;;;;;;;0.20;0.20;;;;;;;;;;5023131;28;20719;-69
2022/10/09 00:16:46;;;;;;;0.20;0.20;;;;;;;;;;5018886;28;20200;-69
2022/10/09 00:19:12;;;;;;;0.20;0.20;;;;;;;;;;5019682;28;20191;-69
2022/10/09 00:21:38;;;;;;;0.27;0.27;;;;;;;;;;5014164;28;20668;-69
2022/10/09 00:24:04;;;;;;;0.30;0.30;;;;;;;;;;5016530;28;20531;-69
2022/10/09 00:26:30;;;;;;;0.20;0.20;;;;;;;;;;5012296;28;20306;-70
2022/10/09 00:28:56;;;;;;;0.30;0.30;;;;;;;;;;5012782;28;20233;-69
2022/10/09 00:31:22;;;;;;;0.20;0.20;;;;;;;;;;5024485;28;20183;-69
2022/10/09 00:33:47;;;;;;;0.20;0.20;;;;;;;;;;5010811;28;20195;-70
2022/10/09 00:36:19;;;;;;;0.20;0.20;;;;;;;;;;5015800;28;20966;-69
2022/10/09 00:38:45;;;;;;;0.30;0.30;;;;;;;;;;5014099;28;20270;-69
2022/10/09 00:41:16;;;;;;;0.20;0.20;;;;;;;;;;5012992;28;20202;-69
2022/10/09 00:43:48;;;;;;;0.20;0.20;;;;;;;;;;5016842;28;20191;-69
2022/10/09 00:46:33;;;;;;;0.20;0.20;;;;;;;;;;5023861;28;20191;-69
2022/10/09 00:49:11;;;;;;;0.30;0.30;;;;;;;;;;5031403;28;20207;-69
2022/10/09 00:51:37;;;;;;;0.20;0.20;;;;;;;;;;5023398;28;20946;-69
2022/10/09 00:54:06;;;;;;;0.20;0.20;;;;;;;;;;5018329;28;20186;-69
2022/10/09 00:56:33;;;;;;;0.20;0.20;;;;;;;;;;5012258;28;20234;-69
2022/10/09 00:58:59;;;;;;;0.20;0.20;;;;;;;;;;5022361;28;20179;-69
2022/10/09 01:01:25;;;;;;;0.20;0.20;;;;;;;;;;5021852;28;20199;-69
2022/10/09 01:03:50;;;;;;;0.20;0.20;;;;;;;;;;5022068;28;20217;-69
2022/10/09 01:06:21;;;;;;;0.20;0.20;;;;;;;;;;5017669;28;20273;-69
2022/10/09 01:09:02;;;;;;;0.20;0.20;;;;;;;;;;5016586;28;20554;-69
2022/10/09 01:12:05;;;;;;;0.20;0.20;;;;;;;;;;5017820;28;20226;-68
2022/10/09 01:14:37;;;;;;;0.20;0.20;;;;;;;;;;5016333;28;20193;-69
2022/10/09 01:17:35;;;;;;;0.20;0.20;;;;;;;;;;5017305;28;20214;-69
2022/10/09 01:20:10;;;;;;;0.20;0.20;;;;;;;;;;5015019;28;20271;-69
2022/10/09 01:22:41;;;;;;;0.20;0.20;;;;;;;;;;5020298;28;20191;-69
2022/10/09 01:25:13;;;;;;;0.20;0.20;;;;;;;;;;5013898;28;20187;-70
2022/10/09 01:27:40;;;;;;;0.20;0.20;;;;;;;;;;5018936;28;20199;-70
2022/10/09 01:30:09;;;;;;;0.27;0.27;;;;;;;;;;5018614;28;20233;-69
2022/10/09 01:32:47;;;;;;;0.30;0.30;;;;;;;;;;5023736;28;20183;-70
2022/10/09 01:35:14;;;;;;;0.20;0.20;;;;;;;;;;5019901;28;20178;-70
2022/10/09 01:37:42;;;;;;;0.20;0.20;;;;;;;;;;5021590;28;20199;-70
2022/10/09 01:40:09;;;;;;;0.20;0.20;;;;;;;;;;5014121;28;20183;-70
2022/10/09 01:42:34;;;;;;;0.20;0.20;;;;;;;;;;5016738;28;20277;-70
2022/10/09 01:44:59;;;;;;;0.20;0.20;;;;;;;;;;5013745;28;20262;-69
2022/10/09 01:47:25;;;;;;;0.20;0.20;;;;;;;;;;5021028;28;20203;-70
2022/10/09 01:49:53;;;;;;;0.20;0.20;;;;;;;;;;5035511;28;20179;-69
2022/10/09 01:52:24;;;;;;;0.20;0.20;;;;;;;;;;5024764;28;20176;-70
2022/10/09 01:55:14;;;;;;;0.20;0.20;;;;;;;;;;5036374;28;20415;-70
2022/10/09 01:57:47;;;;;;;0.20;0.20;;;;;;;;;;5014784;28;20203;-69
2022/10/09 02:00:13;;;;;;;0.20;0.20;;;;;;;;;;5016594;28;20176;-69
2022/10/09 02:02:40;;;;;;;0.20;0.20;;;;;;;;;;5012350;28;20175;-69
2022/10/09 02:05:09;;;;;;;0.20;0.20;;;;;;;;;;5028288;28;20190;-69
2022/10/09 02:07:35;;;;;;;0.23;0.23;;;;;;;;;;5017446;28;20739;-69
2022/10/09 02:10:04;;;;;;;0.20;0.20;;;;;;;;;;5014468;28;20220;-70
2022/10/09 02:12:33;;;;;;;0.20;0.20;;;;;;;;;;5017952;28;20550;-69
2022/10/09 02:14:59;;;;;;;0.20;0.20;;;;;;;;;;5013577;28;20658;-69
2022/10/09 02:17:31;;;;;;;0.20;0.20;;;;;;;;;;5011210;28;20195;-69
2022/10/09 02:20:05;;;;;;;0.20;0.20;;;;;;;;;;5015223;28;20199;-69
2022/10/09 02:22:31;;;;;;;0.30;0.30;;;;;;;;;;5013195;28;20283;-69
2022/10/09 02:24:58;;;;;;;0.20;0.20;;;;;;;;;;5017907;28;20183;-69
2022/10/09 02:27:25;;;;;;;0.20;0.20;;;;;;;;;;5020378;28;20285;-69
2022/10/09 02:29:51;;;;;;;0.20;0.20;;;;;;;;;;5014846;28;20186;-69
2022/10/09 02:32:17;;;;;;;0.20;0.20;;;;;;;;;;5030819;28;20162;-70
2022/10/09 02:34:42;;;;;;;0.30;0.30;;;;;;;;;;5014820;28;20174;-69
2022/10/09 02:37:08;;;;;;;0.30;0.30;;;;;;;;;;5024818;28;20203;-69
2022/10/09 02:39:34;;;;;;;0.20;0.20;;;;;;;;;;5017897;28;20186;-69
2022/10/09 02:41:59;;;;;;;0.20;0.20;;;;;;;;;;5014915;28;20195;-70
2022/10/09 02:44:25;;;;;;;0.20;0.20;;;;;;;;;;5022126;28;20562;-70
2022/10/09 02:46:51;;;;;;;0.20;0.20;;;;;;;;;;5014863;28;20297;-70
2022/10/09 02:49:16;;;;;;;0.20;0.20;;;;;;;;;;5014857;28;20584;-70
2022/10/09 02:51:41;;;;;;;0.20;0.20;;;;;;;;;;5015814;28;20607;-71
2022/10/09 02:54:08;;;;;;;0.10;0.10;;;;;;;;;;5007597;28;20197;-70
2022/10/09 02:56:33;;;;;;;0.20;0.20;;;;;;;;;;5017809;28;20203;-70
2022/10/09 02:58:59;;;;;;;0.20;0.20;;;;;;;;;;5015781;28;20236;-70
2022/10/09 03:01:24;;;;;;;0.20;0.20;;;;;;;;;;5018377;28;20194;-70
2022/10/09 03:03:50;;;;;;;0.30;0.30;;;;;;;;;;5019801;28;20270;-70
2022/10/09 03:06:19;;;;;;;0.20;0.20;;;;;;;;;;5013198;28;20171;-70
2022/10/09 03:08:46;;;;;;;0.20;0.20;;;;;;;;;;5019504;28;20241;-70
2022/10/09 03:11:13;;;;;;;0.20;0.20;;;;;;;;;;5012578;28;20171;-70
2022/10/09 03:13:39;;;;;;;0.20;0.20;;;;;;;;;;5019546;28;20215;-70
2022/10/09 03:16:06;;;;;;;0.20;0.20;;;;;;;;;;5015127;28;20214;-70
2022/10/09 03:18:31;;;;;;;0.20;0.20;;;;;;;;;;5031143;28;20233;-70
2022/10/09 03:20:57;;;;;;;0.20;0.20;;;;;;;;;;5011649;28;20554;-70
2022/10/09 03:23:23;;;;;;;0.20;0.20;;;;;;;;;;5008397;28;20559;-70
2022/10/09 03:26:03;;;;;;;0.20;0.20;;;;;;;;;;5008875;28;20256;-70
2022/10/09 03:28:29;;;;;;;0.20;0.20;;;;;;;;;;5015254;28;20248;-70
2022/10/09 03:30:54;;;;;;;0.27;0.27;;;;;;;;;;5015417;28;20171;-70
2022/10/09 03:33:20;;;;;;;0.20;0.20;;;;;;;;;;5015489;28;20662;-70
2022/10/09 03:35:48;;;;;;;0.20;0.20;;;;;;;;;;5018395;28;20215;-70
2022/10/09 03:38:13;;;;;;;0.20;0.20;;;;;;;;;;5016002;28;20209;-70
2022/10/09 03:40:38;;;;;;;0.20;0.20;;;;;;;;;;5018506;28;20211;-70
2022/10/09 03:43:04;;;;;;;0.20;0.20;;;;;;;;;;5014303;28;20222;-70
2022/10/09 03:45:29;;;;;;;0.20;0.20;;;;;;;;;;5021124;28;20663;-70
2022/10/09 03:47:55;;;;;;;0.20;0.20;;;;;;;;;;5020786;28;20205;-70
2022/10/09 03:50:20;;;;;;;0.20;0.20;;;;;;;;;;5015193;28;20205;-70
2022/10/09 03:52:45;;;;;;;0.20;0.20;;;;;;;;;;5017817;28;20601;-70
2022/10/09 03:55:11;;;;;;;0.20;0.20;;;;;;;;;;5020203;28;20186;-70
2022/10/09 03:57:36;;;;;;;0.20;0.20;;;;;;;;;;5019401;28;20210;-71
2022/10/09 04:00:03;;;;;;;0.20;0.20;;;;;;;;;;5023861;28;20236;-70
2022/10/09 04:02:30;;;;;;;0.20;0.20;;;;;;;;;;5023107;28;20276;-70
2022/10/09 04:04:56;;;;;;;0.20;0.20;;;;;;;;;;5014289;28;20543;-70
2022/10/09 04:07:21;;;;;;;0.20;0.20;;;;;;;;;;5018612;28;20336;-70
2022/10/09 04:09:47;;;;;;;0.30;0.30;;;;;;;;;;5011011;28;20186;-70
2022/10/09 04:12:12;;;;;;;0.20;0.20;;;;;;;;;;5018867;28;20180;-70
2022/10/09 04:14:37;;;;;;;0.20;0.20;;;;;;;;;;5014876;28;20538;-70
2022/10/09 04:17:03;;;;;;;0.20;0.20;;;;;;;;;;5023541;28;20206;-70
2022/10/09 04:19:28;;;;;;;0.20;0.20;;;;;;;;;;5019593;28;20171;-70
2022/10/09 04:21:53;;;;;;;0.20;0.20;;;;;;;;;;5014814;28;20221;-70
2022/10/09 04:24:19;;;;;;;0.20;0.20;;;;;;;;;;5011988;28;20182;-70
2022/10/09 04:26:44;;;;;;;0.20;0.20;;;;;;;;;;5013871;28;20623;-70
2022/10/09 04:29:10;;;;;;;0.20;0.20;;;;;;;;;;5011147;28;20241;-69
2022/10/09 04:31:35;;;;;;;0.20;0.20;;;;;;;;;;5022022;28;20177;-70
2022/10/09 04:34:01;;;;;;;0.20;0.20;;;;;;;;;;5016184;28;20194;-69
2022/10/09 04:36:26;;;;;;;0.20;0.20;;;;;;;;;;5018178;28;20241;-69
2022/10/09 04:38:51;;;;;;;0.20;0.20;;;;;;;;;;5027148;28;20609;-69
2022/10/09 04:41:17;;;;;;;0.20;0.20;;;;;;;;;;5016254;28;20279;-69
2022/10/09 04:43:43;;;;;;;0.20;0.20;;;;;;;;;;5024033;28;20193;-69
2022/10/09 04:46:11;;;;;;;0.20;0.20;;;;;;;;;;5017488;28;20589;-70
2022/10/09 04:48:38;;;;;;;0.20;0.20;;;;;;;;;;5022907;28;20577;-69
2022/10/09 04:51:05;;;;;;;0.20;0.20;;;;;;;;;;5024741;28;20187;-69
2022/10/09 04:53:31;;;;;;;0.20;0.20;;;;;;;;;;5020945;28;20193;-70
2022/10/09 04:55:57;;;;;;;0.20;0.20;;;;;;;;;;5016994;28;20347;-70
2022/10/09 04:58:22;;;;;;;0.20;0.20;;;;;;;;;;5014960;28;20202;-70
2022/10/09 05:00:48;;;;;;;0.20;0.20;;;;;;;;;;5017029;28;20200;-70
2022/10/09 05:03:13;;;;;;;0.20;0.20;;;;;;;;;;5014921;28;20664;-70
2022/10/09 05:05:38;;;;;;;0.20;0.20;;;;;;;;;;5016989;28;20206;-71
2022/10/09 05:08:04;;;;;;;0.20;0.20;;;;;;;;;;5011986;28;20194;-70
2022/10/09 05:10:31;;;;;;;0.20;0.20;;;;;;;;;;5017726;28;20196;-70
2022/10/09 05:12:57;;;;;;;0.20;0.20;;;;;;;;;;5014199;28;20187;-70
2022/10/09 05:15:23;;;;;;;0.20;0.20;;;;;;;;;;5014986;28;20183;-70
2022/10/09 05:17:48;;;;;;;0.20;0.20;;;;;;;;;;5009003;28;20221;-70
2022/10/09 05:20:14;;;;;;;0.20;0.20;;;;;;;;;;5031397;28;20205;-70
2022/10/09 05:22:42;;;;;;;0.20;0.20;;;;;;;;;;5011728;28;20199;-70
2022/10/09 05:25:08;;;;;;;0.20;0.20;;;;;;;;;;5015178;28;20183;-70
2022/10/09 05:27:33;;;;;;;0.20;0.20;;;;;;;;;;5013827;28;20547;-70
2022/10/09 05:29:59;;;;;;;0.20;0.20;;;;;;;;;;5021589;28;20265;-70
2022/10/09 05:32:24;;;;;;;0.20;0.20;;;;;;;;;;5009286;28;20257;-70
2022/10/09 05:34:50;;;;;;;0.20;0.20;;;;;;;;;;5015249;28;20232;-70
2022/10/09 05:37:15;;;;;;;0.20;0.20;;;;;;;;;;5016584;28;20236;-70
2022/10/09 05:39:40;;;;;;;0.20;0.20;;;;;;;;;;5027437;28;20270;-70
2022/10/09 05:42:06;;;;;;;0.20;0.20;;;;;;;;;;5016625;28;20538;-70
2022/10/09 05:44:31;;;;;;;0.20;0.20;;;;;;;;;;5023417;28;20191;-71
2022/10/09 05:46:56;;;;;;;0.20;0.20;;;;;;;;;;5017309;28;20199;-70
2022/10/09 05:49:22;;;;;;;0.20;0.20;;;;;;;;;;5009171;28;20190;-70
2022/10/09 05:51:48;;;;;;;0.20;0.20;;;;;;;;;;5015245;28;20187;-70
2022/10/09 05:54:15;;;;;;;0.20;0.20;;;;;;;;;;5019934;28;20183;-71
2022/10/09 05:56:41;;;;;;;0.20;0.20;;;;;;;;;;5017497;28;20203;-71
2022/10/09 05:59:09;;;;;;;0.20;0.20;;;;;;;;;;5022801;28;20237;-71
2022/10/09 06:01:40;;;;;;;0.20;0.20;;;;;;;;;;5011960;28;20226;-70
2022/10/09 06:04:08;;;;;;;0.20;0.20;;;;;;;;;;5017712;28;20286;-70
2022/10/09 06:06:36;;;;;;;0.20;0.20;;;;;;;;;;5014489;28;20206;-70
2022/10/09 06:09:02;;;;;;;0.20;0.20;;;;;;;;;;5017552;28;20190;-70
2022/10/09 06:11:31;;;;;;;0.27;0.27;;;;;;;;;;5016998;28;20670;-70
2022/10/09 06:13:57;;;;;;;0.20;0.20;;;;;;;;;;5017046;28;20188;-70
2022/10/09 06:16:25;;;;;;;0.30;0.30;;;;;;;;;;5015792;28;20177;-70
2022/10/09 06:18:53;;;;;;;0.30;0.30;;;;;;;;;;5020087;28;20641;-70
2022/10/09 06:21:18;;;;;;;0.20;0.20;;;;;;;;;;5028264;28;20199;-70
2022/10/09 06:23:47;;;;;;;0.20;0.20;;;;;;;;;;5013245;28;20190;-70
2022/10/09 06:26:12;;;;;;;0.20;0.20;;;;;;;;;;5027448;28;20628;-72
2022/10/09 06:28:38;;;;;;;0.30;0.30;;;;;;;;;;5016096;28;20189;-70
2022/10/09 06:31:10;;;;;;;0.30;0.30;;;;;;;;;;5017807;28;20172;-70
2022/10/09 06:33:37;;;;;;;0.30;0.30;;;;;;;;;;5021360;28;20329;-75
2022/10/09 06:36:07;;;;;;;0.30;0.30;;;;;;;;;;5017658;28;20171;-75
2022/10/09 06:38:36;;;;;;;0.20;0.20;;;;;;;;;;5026178;28;20210;-72
2022/10/09 06:41:06;;;;;;;0.30;0.30;;;;;;;;;;5016825;28;20201;-71
2022/10/09 06:43:32;;;;;;;0.20;0.20;;;;;;;;;;5022032;28;20183;-71
2022/10/09 06:46:02;;;;;;;0.20;0.20;;;;;;;;;;5021203;28;20190;-71
2022/10/09 06:48:29;;;;;;;0.23;0.23;;;;;;;;;;5022968;28;20546;-71
2022/10/09 06:51:03;;;;;;;0.30;0.30;;;;;;;;;;5011467;28;20774;-71
2022/10/09 06:53:28;;;;;;;0.30;0.30;;;;;;;;;;5011541;28;20556;-72
2022/10/09 06:55:56;;;;;;;0.30;0.30;;;;;;;;;;5018941;28;20186;-73
2022/10/09 06:58:21;;;;;;;0.30;0.30;;;;;;;;;;5014284;28;20217;-73
2022/10/09 07:00:47;;;;;;;0.30;0.30;;;;;;;;;;5013428;28;20209;-72
2022/10/09 07:03:12;;;;;;;0.30;0.30;;;;;;;;;;5014686;28;20201;-72
2022/10/09 07:05:38;;;;;;;0.30;0.30;;;;;;;;;;5015395;28;20340;-73
2022/10/09 07:08:03;;;;;;;0.30;0.30;;;;;;;;;;5012702;28;20683;-73
2022/10/09 07:10:28;;;;;;;0.30;0.30;;;;;;;;;;5024822;28;20179;-73
2022/10/09 07:12:54;;;;;;;0.30;0.30;;;;;;;;;;5016655;28;20179;-73
2022/10/09 07:15:19;;;;;;;0.30;0.30;;;;;;;;;;5016738;28;20183;-73
2022/10/09 07:17:44;;;;;;;0.30;0.30;;;;;;;;;;5013654;28;20246;-73
2022/10/09 07:20:10;;;;;;;0.30;0.30;;;;;;;;;;5013821;28;20194;-73
2022/10/09 07:22:36;;;;;;;0.30;0.30;;;;;;;;;;5010240;28;20269;-74
2022/10/09 07:25:02;;;;;;;0.30;0.30;;;;;;;;;;5030946;28;20183;-76
2022/10/09 07:27:28;;;;;;;0.30;0.30;;;;;;;;;;5016100;28;20674;-73
2022/10/09 07:29:53;;;;;;;0.30;0.30;;;;;;;;;;5020021;28;20695;-73
2022/10/09 07:32:19;;;;;;;0.30;0.30;;;;;;;;;;5020464;28;20495;-73
2022/10/09 07:34:44;;;;;;;0.30;0.30;;;;;;;;;;5012180;28;20187;-73
2022/10/09 07:37:09;;;;;;;0.40;0.40;;;;;;;;;;5014643;28;20199;-73
2022/10/09 07:39:35;;;;;;;0.30;0.30;;;;;;;;;;5006815;28;20190;-73
2022/10/09 07:42:01;;;;;;;0.30;0.30;;;;;;;;;;5008049;28;20215;-73
2022/10/09 07:44:27;;;;;;;0.30;0.30;;;;;;;;;;5020290;28;20186;-74
2022/10/09 07:46:52;;;;;;;0.30;0.30;;;;;;;;;;5008173;28;20303;-73
2022/10/09 07:49:18;;;;;;;0.30;0.30;;;;;;;;;;5011926;28;20522;-73
2022/10/09 07:51:44;;;;;;;0.32;0.32;;;;;;;;;;5010172;28;20571;-74
2022/10/09 07:54:09;;;;;;;0.30;0.30;;;;;;;;;;5008128;28;20197;-73
2022/10/09 07:56:36;;;;;;;0.30;0.30;;;;;;;;;;5007829;28;20203;-73
2022/10/09 07:59:20;;;;;;;0.30;0.30;;;;;;;;;;5013960;28;20202;-73
2022/10/09 08:01:46;;;;;;;0.30;0.30;;;;;;;;;;5015017;28;20280;-73
2022/10/09 08:04:11;;;;;;;0.30;0.30;;;;;;;;;;5018575;28;20653;-73
2022/10/09 08:06:36;;;;;;;0.30;0.30;;;;;;;;;;5024988;28;20436;-73
2022/10/09 08:09:04;;;;;;;0.30;0.30;;;;;;;;;;5020210;28;20198;-73
2022/10/09 08:11:30;;;;;;;0.30;0.30;;;;;;;;;;5009992;28;20660;-73
2022/10/09 08:13:55;;;;;;;0.40;0.40;;;;;;;;;;5007488;28;20190;-73
2022/10/09 08:16:22;;;;;;;0.30;0.30;;;;;;;;;;5018133;28;20179;-73
2022/10/09 08:18:47;;;;;;;0.30;0.30;;;;;;;;;;5016923;28;20326;-72
2022/10/09 08:21:16;;;;;;;0.30;0.30;;;;;;;;;;5014854;28;20297;-73
2022/10/09 08:23:42;;;;;;;0.40;0.40;;;;;;;;;;5013578;28;20192;-72
2022/10/09 08:26:16;;;;;;;0.30;0.30;;;;;;;;;;5013404;28;20179;-72
2022/10/09 08:28:41;;;;;;;0.30;0.30;;;;;;;;;;5015149;28;20269;-72
2022/10/09 08:31:15;;;;;;;0.30;0.30;;;;;;;;;;5020352;28;20269;-72
2022/10/09 08:33:40;;;;;;;0.40;0.40;;;;;;;;;;5026522;28;20186;-72
2022/10/09 08:36:07;;;;;;;0.30;0.30;;;;;;;;;;5018940;28;20277;-72
2022/10/09 08:38:34;;;;;;;0.30;0.30;;;;;;;;;;5028560;28;20736;-72
2022/10/09 08:41:12;;;;;;;0.30;0.30;;;;;;;;;;5020444;28;20301;-72
2022/10/09 08:43:42;;;;;;;0.32;0.32;;;;;;;;;;5018617;28;20742;-72
2022/10/09 08:46:27;;;;;;;0.30;0.30;;;;;;;;;;5025793;28;20191;-73
2022/10/09 08:48:54;;;;;;;0.30;0.30;;;;;;;;;;5023500;28;20236;-72
2022/10/09 08:51:25;;;;;;;0.30;0.30;;;;;;;;;;5025077;28;20217;-72
2022/10/09 08:54:08;;;;;;;0.30;0.30;;;;;;;;;;5021505;28;20256;-72
2022/10/09 08:56:34;;;;;;;0.40;0.40;;;;;;;;;;5014522;28;20643;-72
2022/10/09 08:59:00;;;;;;;0.30;0.30;;;;;;;;;;5022767;28;20270;-72
2022/10/09 09:01:43;;;;;;;0.30;0.30;;;;;;;;;;5018667;28;20669;-72
2022/10/09 09:04:21;;;;;;;0.40;0.40;;;;;;;;;;5022788;28;20282;-72
2022/10/09 09:06:55;;;;;;;0.40;0.40;;;;;;;;;;5014900;28;20580;-72
2022/10/09 09:09:31;;;;;;;0.30;0.30;;;;;;;;;;5014984;28;20308;-72
2022/10/09 09:12:38;;;;;;;0.40;0.40;;;;;;;;;;5016105;28;20191;-72
2022/10/09 09:15:34;;;;;;;0.40;0.40;;;;;;;;;;5015472;28;20190;-72
2022/10/09 09:18:13;;;;;;;0.30;0.30;;;;;;;;;;5013972;28;20198;-71
2022/10/09 09:20:42;;;;;;;0.40;0.40;;;;;;;;;;5020466;28;20269;-72
2022/10/09 09:23:14;;;;;;;0.30;0.30;;;;;;;;;;5033734;28;20207;-72
2022/10/09 09:25:43;;;;;;;0.40;0.40;;;;;;;;;;5013924;28;20183;-72
2022/10/09 09:28:19;;;;;;;0.30;0.30;;;;;;;;;;5010047;28;20199;-72
2022/10/09 09:30:50;;;;;;;0.40;0.40;;;;;;;;;;5013252;28;20258;-72
2022/10/09 09:33:31;;;;;;;0.40;0.40;;;;;;;;;;5020089;28;20600;-72
2022/10/09 09:36:09;;;;;;;0.40;0.40;;;;;;;;;;5016245;28;20257;-72
2022/10/09 09:38:35;;;;;;;0.30;0.30;;;;;;;;;;5023118;28;20175;-72
2022/10/09 09:41:03;;;;;;;0.35;0.35;;;;;;;;;;5017813;28;20210;-72
2022/10/09 09:43:28;;;;;;;0.30;0.30;;;;;;;;;;5021635;28;20559;-72
2022/10/09 09:45:56;;;;;;;0.30;0.30;;;;;;;;;;5018936;28;20322;-72
2022/10/09 09:48:33;;;;;;;0.30;0.30;;;;;;;;;;5014526;28;20203;-72
2022/10/09 09:50:59;;;;;;;0.30;0.30;;;;;;;;;;5014834;28;20273;-72
2022/10/09 09:53:30;;;;;;;0.30;0.30;;;;;;;;;;5017827;28;20186;-72
2022/10/09 09:55:56;;;;;;;0.40;0.40;;;;;;;;;;5021748;28;20921;-72
2022/10/09 09:58:28;;;;;;;0.30;0.30;;;;;;;;;;5020482;28;20194;-72
2022/10/09 10:01:02;;;;;;;0.30;0.30;;;;;;;;;;5011784;28;20210;-72
2022/10/09 10:03:29;;;;;;;0.30;0.30;;;;;;;;;;5013604;28;20202;-72
2022/10/09 10:05:55;;;;;;;0.30;0.30;;;;;;;;;;5013243;28;20179;-72
2022/10/09 10:08:27;;;;;;;0.30;0.30;;;;;;;;;;5018187;28;20232;-72
2022/10/09 10:10:56;;;;;;;0.30;0.30;;;;;;;;;;5016520;28;20671;-73
2022/10/09 10:13:37;;;;;;;0.30;0.30;;;;;;;;;;5018592;28;20190;-72
2022/10/09 10:16:04;;;;;;;0.30;0.30;;;;;;;;;;5026159;28;20607;-71
2022/10/09 10:18:40;;;;;;;0.30;0.30;;;;;;;;;;5021243;28;20206;-70
2022/10/09 10:21:13;;;;;;;0.30;0.30;;;;;;;;;;5011400;28;20226;-71
2022/10/09 10:24:04;;;;;;;0.30;0.30;;;;;;;;;;5012937;28;20179;-72
2022/10/09 10:26:48;;;;;;;0.40;0.40;;;;;;;;;;5021043;28;20975;-72
2022/10/09 10:29:20;;;;;;;0.30;0.30;;;;;;;;;;5015849;28;20183;-72
2022/10/09 10:32:04;;;;;;;0.30;0.30;;;;;;;;;;5012463;28;20551;-72
2022/10/09 10:34:52;;;;;;;0.30;0.30;;;;;;;;;;5011712;28;20183;-71
2022/10/09 10:37:28;;;;;;;0.30;0.30;;;;;;;;;;5011762;28;20483;-71
2022/10/09 10:40:02;;;;;;;0.40;0.40;;;;;;;;;;5020576;28;20175;-72
2022/10/09 10:42:51;;;;;;;0.35;0.35;;;;;;;;;;5015001;28;20206;-71
2022/10/09 10:45:29;;;;;;;0.30;0.30;;;;;;;;;;5019673;28;20186;-72
2022/10/09 10:47:57;;;;;;;0.30;0.30;;;;;;;;;;5019808;28;20253;-72
2022/10/09 10:50:29;;;;;;;0.30;0.30;;;;;;;;;;5014279;28;20274;-72
2022/10/09 10:53:05;;;;;;;0.30;0.30;;;;;;;;;;5013152;28;20675;-72
2022/10/09 10:55:49;;;;;;;0.40;0.40;;;;;;;;;;5014964;28;20309;-72
2022/10/09 10:58:20;;;;;;;0.30;0.30;;;;;;;;;;5015040;28;20202;-72
2022/10/09 11:01:11;;;;;;;0.40;0.40;;;;;;;;;;5018495;28;20240;-72
2022/10/09 11:03:51;;;;;;;0.40;0.40;;;;;;;;;;5013130;28;20211;-72
2022/10/09 11:06:36;;;;;;;0.30;0.30;;;;;;;;;;5011466;28;20179;-72
2022/10/09 11:09:08;;;;;;;0.30;0.30;;;;;;;;;;5009316;28;20641;-72
2022/10/09 11:11:43;;;;;;;0.30;0.30;;;;;;;;;;5011095;28;20179;-72
2022/10/09 11:14:24;;;;;;;0.30;0.30;;;;;;;;;;5015573;28;20206;-72
2022/10/09 11:17:09;;;;;;;0.30;0.30;;;;;;;;;;5015107;28;20233;-72
2022/10/09 11:20:06;;;;;;;0.40;0.40;;;;;;;;;;5013790;28;20181;-71
2022/10/09 11:23:09;;;;;;;0.35;0.35;;;;;;;;;;5010966;28;20225;-71
2022/10/09 11:25:52;;;;;;;0.30;0.30;;;;;;;;;;5010930;28;20179;-72
2022/10/09 11:28:26;;;;;;;0.30;0.30;;;;;;;;;;5022518;28;20221;-71
2022/10/09 11:30:58;;;;;;;0.40;0.40;;;;;;;;;;5013709;28;20219;-72
2022/10/09 11:33:32;;;;;;;0.40;0.40;;;;;;;;;;5028708;28;20193;-72
2022/10/09 11:36:24;;;;;;;0.30;0.30;;;;;;;;;;5011806;28;20178;-71
2022/10/09 11:38:58;;;;;;;0.30;0.30;;;;;;;;;;5014195;28;20506;-72
2022/10/09 11:41:25;;;;;;;0.30;0.30;;;;;;;;;;5010851;28;20219;-72
2022/10/09 11:43:53;;;;;;;0.40;0.40;;;;;;;;;;5016412;28;20767;-74
2022/10/09 11:46:28;;;;;;;0.30;0.30;;;;;;;;;;5015973;28;20175;-73
2022/10/09 11:48:57;;;;;;;0.30;0.30;;;;;;;;;;5018327;28;20254;-71
2022/10/09 11:51:30;;;;;;;0.30;0.30;;;;;;;;;;5013576;28;20182;-72
2022/10/09 11:53:56;;;;;;;0.30;0.30;;;;;;;;;;5012876;28;20213;-71
2022/10/09 11:56:24;;;;;;;0.40;0.40;;;;;;;;;;5008778;28;20410;-74
2022/10/09 11:59:04;;;;;;;0.38;0.38;;;;;;;;;;5018958;28;20190;-73
2022/10/09 12:01:32;;;;;;;0.35;0.35;;;;;;;;;;5017823;28;20202;-73
2022/10/09 12:04:18;;;;;;;0.30;0.30;;;;;;;;;;5018257;28;20199;-72
2022/10/09 12:06:46;;;;;;;0.30;0.30;;;;;;;;;;5012447;28;20222;-72
2022/10/09 12:09:32;;;;;;;0.30;0.30;;;;;;;;;;5017054;28;20274;-71
2022/10/09 12:12:27;;;;;;;0.30;0.30;;;;;;;;;;5021255;28;20171;-72
2022/10/09 12:14:53;;;;;;;0.30;0.30;;;;;;;;;;5016389;28;20199;-73
2022/10/09 12:17:21;;;;;;;1.30;0.82;;;;;;;;;;5014206;28;20203;-72
2022/10/09 12:19:50;;;;;;;0.30;0.30;;;;;;;;;;5023196;28;20565;-72
2022/10/09 12:22:20;;;;;;;0.30;0.30;;;;;;;;;;5018916;28;20202;-71
2022/10/09 12:24:49;;;;;;;0.30;0.30;;;;;;;;;;5016863;28;20179;-72
2022/10/09 12:27:22;;;;;;;0.40;0.40;;;;;;;;;;5016632;28;20210;-73
2022/10/09 12:29:53;;;;;;;0.30;0.30;;;;;;;;;;5014649;28;20187;-72
2022/10/09 12:32:28;;;;;;;0.30;0.30;;;;;;;;;;5016730;28;20663;-72
2022/10/09 12:34:55;;;;;;;0.30;0.30;;;;;;;;;;5015384;28;20190;-74
2022/10/09 12:37:33;;;;;;;0.40;0.40;;;;;;;;;;5023700;28;20205;-72
2022/10/09 12:40:24;;;;;;;0.30;0.30;;;;;;;;;;5020808;28;20247;-73
2022/10/09 12:42:51;;;;;;;0.38;0.38;;;;;;;;;;5021890;28;20195;-75
2022/10/09 12:45:29;;;;;;;0.30;0.30;;;;;;;;;;5016336;28;20202;-72
2022/10/09 12:47:56;;;;;;;0.30;0.30;;;;;;;;;;5015542;28;20214;-73
2022/10/09 12:50:32;;;;;;;0.30;0.30;;;;;;;;;;5023261;28;20298;-73
2022/10/09 12:53:02;;;;;;;0.30;0.30;;;;;;;;;;5015711;28;20267;-73
2022/10/09 12:55:33;;;;;;;0.30;0.30;;;;;;;;;;5018503;28;20265;-75
2022/10/09 12:58:04;;;;;;;0.30;0.30;;;;;;;;;;5010175;28;20211;-72
2022/10/09 13:00:32;;;;;;;0.30;0.30;;;;;;;;;;5014272;28;20187;-71
2022/10/09 13:02:57;;;;;;;0.30;0.30;;;;;;;;;;5017324;28;20290;-71
2022/10/09 13:05:37;;;;;;;0.30;0.30;;;;;;;;;;5022107;28;20265;-71
2022/10/09 13:08:04;;;;;;;1.27;1.27;;;;;;;;;;5014833;28;20198;-72
2022/10/09 13:10:29;;;;;;;0.30;0.30;;;;;;;;;;5016816;28;20194;-71
2022/10/09 13:12:57;;;;;;;0.30;0.30;;;;;;;;;;5032163;28;20178;-74
2022/10/09 13:15:30;;;;;;;0.40;0.40;;;;;;;;;;5016664;28;20562;-74
2022/10/09 13:17:55;;;;;;;0.30;0.30;;;;;;;;;;5016196;28;20226;-72
2022/10/09 13:20:23;;;;;;;0.30;0.30;;;;;;;;;;5021517;28;20190;-75
2022/10/09 13:22:52;;;;;;;0.30;0.30;;;;;;;;;;5020446;28;20832;-71
2022/10/09 13:25:17;;;;;;;0.40;0.40;;;;;;;;;;5023190;28;20591;-71
2022/10/09 13:27:43;;;;;;;0.40;0.40;;;;;;;;;;5014512;28;20285;-73
2022/10/09 13:30:10;;;;;;;0.32;0.32;;;;;;;;;;5024354;28;20179;-71
2022/10/09 13:32:35;;;;;;;0.30;0.30;;;;;;;;;;5019652;28;20262;-73
2022/10/09 13:35:00;;;;;;;0.30;0.30;;;;;;;;;;5020125;28;20366;-71
2022/10/09 13:37:26;;;;;;;0.30;0.30;;;;;;;;;;5018513;28;20253;-74
2022/10/09 13:39:53;;;;;;;0.30;0.30;;;;;;;;;;5020199;28;20187;-73
2022/10/09 13:42:20;;;;;;;0.30;0.30;;;;;;;;;;5018131;28;20205;-72
2022/10/09 13:44:45;;;;;;;0.30;0.30;;;;;;;;;;5013648;28;20184;-74
2022/10/09 13:47:11;;;;;;;0.30;0.30;;;;;;;;;;5016085;28;20210;-71
2022/10/09 13:49:36;;;;;;;0.30;0.30;;;;;;;;;;5013495;28;20210;-72
2022/10/09 13:52:02;;;;;;;0.30;0.30;;;;;;;;;;5021072;28;20180;-75
2022/10/09 13:54:27;;;;;;;0.30;0.30;;;;;;;;;;5020112;28;20198;-71
2022/10/09 13:56:53;;;;;;;0.40;0.40;;;;;;;;;;5012828;28;20211;-71
2022/10/09 13:59:19;;;;;;;0.30;0.30;;;;;;;;;;5022857;28;20282;-72
2022/10/09 14:01:44;;;;;;;0.30;0.30;;;;;;;;;;5015009;28;20214;-73
2022/10/09 14:04:09;;;;;;;0.30;0.30;;;;;;;;;;5021853;28;20175;-72
2022/10/09 14:06:36;;;;;;;0.40;0.40;;;;;;;;;;5010706;28;20230;-72
2022/10/09 14:09:04;;;;;;;0.30;0.30;;;;;;;;;;5025020;28;20186;-71
2022/10/09 14:11:30;;;;;;;0.30;0.30;;;;;;;;;;5020490;28;20762;-73
2022/10/09 14:13:57;;;;;;;0.30;0.30;;;;;;;;;;5027156;28;20183;-71
2022/10/09 14:16:23;;;;;;;0.30;0.30;;;;;;;;;;5016204;28;20755;-72
2022/10/09 14:18:49;;;;;;;0.30;0.30;;;;;;;;;;5015856;28;20212;-72
2022/10/09 14:21:14;;;;;;;0.30;0.30;;;;;;;;;;5013098;28;20246;-72
2022/10/09 14:23:40;;;;;;;0.30;0.30;;;;;;;;;;5016905;28;20685;-72
2022/10/09 14:26:06;;;;;;;0.30;0.30;;;;;;;;;;5021822;28;20249;-72
2022/10/09 14:28:32;;;;;;;0.30;0.30;;;;;;;;;;5017472;28;20207;-72
2022/10/09 14:30:57;;;;;;;0.30;0.30;;;;;;;;;;5021965;28;20674;-71
2022/10/09 14:33:23;;;;;;;0.30;0.30;;;;;;;;;;5016012;28;20202;-71
2022/10/09 14:35:48;;;;;;;0.30;0.30;;;;;;;;;;5015008;28;20554;-71
2022/10/09 14:38:14;;;;;;;0.30;0.30;;;;;;;;;;5010700;28;20251;-71
2022/10/09 14:40:43;;;;;;;0.30;0.30;;;;;;;;;;5019848;28;20231;-71
2022/10/09 14:43:09;;;;;;;0.30;0.30;;;;;;;;;;5021650;28;20645;-71
2022/10/09 14:45:35;;;;;;;0.30;0.30;;;;;;;;;;5021110;28;20186;-71
2022/10/09 14:48:00;;;;;;;0.40;0.40;;;;;;;;;;5019269;28;20285;-71
2022/10/09 14:50:25;;;;;;;0.30;0.30;;;;;;;;;;5021865;28;20983;-71
2022/10/09 14:52:51;;;;;;;0.40;0.40;;;;;;;;;;5013368;28;20186;-71
2022/10/09 14:55:16;;;;;;;0.30;0.30;;;;;;;;;;5011573;28;20194;-71
2022/10/09 14:57:42;;;;;;;0.30;0.30;;;;;;;;;;5011965;28;20242;-71